createdAt,value
2019-05-12T00:00:35.215Z,6.57
2019-05-12T00:01:35.236Z,6.56
2019-05-12T00:02:35.174Z,6.47
2019-05-12T00:03:35.155Z,6.55
2019-05-12T00:04:35.185Z,6.55
2019-05-12T00:05:35.226Z,6.53
2019-05-12T00:06:35.106Z,6.56
2019-05-12T00:07:35.135Z,6.56
2019-05-12T00:08:35.199Z,6.56
2019-05-12T00:09:35.148Z,6.47
2019-05-12T00:10:35.120Z,6.56
2019-05-12T00:11:35.100Z,6.49
2019-05-12T00:12:35.071Z,6.45
2019-05-12T00:13:35.051Z,6.45
2019-05-12T00:14:35.074Z,6.43
2019-05-12T00:15:35.015Z,6.46
2019-05-12T00:16:35.047Z,6.46
2019-05-12T00:17:35.033Z,6.45
2019-05-12T00:18:35.064Z,6.42
2019-05-12T00:19:35.019Z,6.40
2019-05-12T00:20:34.976Z,6.45
2019-05-12T00:21:37.614Z,6.43
2019-05-12T00:22:34.958Z,6.47
2019-05-12T00:23:34.952Z,6.42
2019-05-12T00:24:34.966Z,6.43
2019-05-12T00:25:34.949Z,6.42
2019-05-12T00:26:34.913Z,6.40
2019-05-12T00:27:34.931Z,6.42
2019-05-12T00:28:34.919Z,6.35
2019-05-12T00:29:34.897Z,6.37
2019-05-12T00:30:34.893Z,6.37
2019-05-12T00:31:34.913Z,6.31
2019-05-12T00:32:34.939Z,6.30
2019-05-12T00:33:34.818Z,6.27
2019-05-12T00:34:34.880Z,6.32
2019-05-12T00:35:34.820Z,6.31
2019-05-12T00:36:34.807Z,6.28
2019-05-12T00:37:34.911Z,6.25
2019-05-12T00:38:34.824Z,6.21
2019-05-12T00:39:34.835Z,6.19
2019-05-12T00:40:34.784Z,6.13
2019-05-12T00:41:34.729Z,6.19
2019-05-12T00:42:34.760Z,6.13
2019-05-12T00:43:34.753Z,6.25
2019-05-12T00:44:34.739Z,6.24
2019-05-12T00:45:34.749Z,6.11
2019-05-12T00:46:34.711Z,6.15
2019-05-12T00:47:34.686Z,6.13
2019-05-12T00:48:34.702Z,6.13
2019-05-12T00:49:34.743Z,6.09
2019-05-12T00:50:34.683Z,6.16
2019-05-12T00:51:34.634Z,6.11
2019-05-12T00:52:34.627Z,6.19
2019-05-12T00:53:39.981Z,6.16
2019-05-12T00:54:37.540Z,6.13
2019-05-12T00:55:34.606Z,6.11
2019-05-12T00:56:34.608Z,6.15
2019-05-12T00:57:34.568Z,6.06
2019-05-12T00:58:34.556Z,6.03
2019-05-12T00:59:34.581Z,6.08
2019-05-12T01:00:34.538Z,6.02
2019-05-12T01:01:34.528Z,6.00
2019-05-12T01:02:34.511Z,5.93
2019-05-12T01:03:34.506Z,5.97
2019-05-12T01:04:34.518Z,5.94
2019-05-12T01:05:34.482Z,5.93
2019-05-12T01:06:34.457Z,5.85
2019-05-12T01:07:34.465Z,5.82
2019-05-12T01:08:34.466Z,5.85
2019-05-12T01:09:34.462Z,5.85
2019-05-12T01:10:34.423Z,5.87
2019-05-12T01:11:34.417Z,5.85
2019-05-12T01:12:34.404Z,5.84
2019-05-12T01:13:34.396Z,5.80
2019-05-12T01:14:34.501Z,5.66
2019-05-12T01:15:34.377Z,5.72
2019-05-12T01:16:34.368Z,5.75
2019-05-12T01:17:34.411Z,5.84
2019-05-12T01:18:34.344Z,5.75
2019-05-12T01:19:34.365Z,5.80
2019-05-12T01:20:34.370Z,5.80
2019-05-12T01:21:34.348Z,5.87
2019-05-12T01:22:34.279Z,5.84
2019-05-12T01:23:34.293Z,5.84
2019-05-12T01:24:34.261Z,5.90
2019-05-12T01:25:34.279Z,5.85
2019-05-12T01:26:34.260Z,5.88
2019-05-12T01:27:34.244Z,5.91
2019-05-12T01:28:34.236Z,5.85
2019-05-12T01:29:34.213Z,5.77
2019-05-12T01:30:34.242Z,5.80
2019-05-12T01:31:34.197Z,5.67
2019-05-12T01:32:34.201Z,5.70
2019-05-12T01:33:34.184Z,5.75
2019-05-12T01:34:34.161Z,5.66
2019-05-12T01:35:34.193Z,5.73
2019-05-12T01:36:34.139Z,5.66
2019-05-12T01:37:34.157Z,5.67
2019-05-12T01:38:34.174Z,5.69
2019-05-12T01:39:34.140Z,5.67
2019-05-12T01:40:34.131Z,5.70
2019-05-12T01:41:34.093Z,5.65
2019-05-12T01:42:34.085Z,5.70
2019-05-12T01:43:34.075Z,5.61
2019-05-12T01:44:34.102Z,5.58
2019-05-12T01:45:34.045Z,5.58
2019-05-12T01:46:34.057Z,5.54
2019-05-12T01:47:34.029Z,5.51
2019-05-12T01:48:34.016Z,5.41
2019-05-12T01:49:34.006Z,5.40
2019-05-12T01:50:34.041Z,5.34
2019-05-12T01:51:33.966Z,5.34
2019-05-12T01:52:33.983Z,5.29
2019-05-12T01:53:33.945Z,5.22
2019-05-12T01:54:33.985Z,5.25
2019-05-12T01:55:33.989Z,5.22
2019-05-12T01:56:33.953Z,5.15
2019-05-12T01:57:33.902Z,5.07
2019-05-12T01:58:33.904Z,5.16
2019-05-12T01:59:33.894Z,5.18
2019-05-12T02:00:33.928Z,5.19
2019-05-12T02:01:33.874Z,5.14
2019-05-12T02:02:33.842Z,5.14
2019-05-12T02:03:33.845Z,5.16
2019-05-12T02:04:33.884Z,5.15
2019-05-12T02:05:33.888Z,5.22
2019-05-12T02:06:33.818Z,5.15
2019-05-12T02:07:33.809Z,5.19
2019-05-12T02:08:33.800Z,5.14
2019-05-12T02:09:33.792Z,5.15
2019-05-12T02:10:33.824Z,5.18
2019-05-12T02:11:33.759Z,5.12
2019-05-12T02:12:33.767Z,5.19
2019-05-12T02:13:33.759Z,5.14
2019-05-12T02:14:33.734Z,5.09
2019-05-12T02:15:33.757Z,5.12
2019-05-12T02:16:33.715Z,5.12
2019-05-12T02:17:33.707Z,5.14
2019-05-12T02:18:33.727Z,5.06
2019-05-12T02:19:33.706Z,5.14
2019-05-12T02:20:33.719Z,5.06
2019-05-12T02:21:33.663Z,5.07
2019-05-12T02:22:33.667Z,5.06
2019-05-12T02:23:33.657Z,5.06
2019-05-12T02:24:33.635Z,5.16
2019-05-12T02:25:33.647Z,5.15
2019-05-12T02:26:33.611Z,5.16
2019-05-12T02:27:33.588Z,5.16
2019-05-12T02:28:33.634Z,5.16
2019-05-12T02:29:33.592Z,5.15
2019-05-12T02:30:33.680Z,5.12
2019-05-12T02:31:33.589Z,5.11
2019-05-12T02:32:47.302Z,5.04
2019-05-12T02:33:35.595Z,5.14
2019-05-12T02:34:34.970Z,5.03
2019-05-12T02:35:35.432Z,5.01
2019-05-12T02:36:34.146Z,5.06
2019-05-12T02:37:35.817Z,5.12
2019-05-12T02:38:33.481Z,5.14
2019-05-12T02:39:35.224Z,5.16
2019-05-12T02:40:34.705Z,5.11
2019-05-12T02:41:34.520Z,5.16
2019-05-12T02:42:34.911Z,5.22
2019-05-12T02:43:34.779Z,5.22
2019-05-12T02:44:34.703Z,5.21
2019-05-12T02:45:35.541Z,5.15
2019-05-12T02:46:34.824Z,5.24
2019-05-12T02:47:34.736Z,5.29
2019-05-12T02:48:35.670Z,5.21
2019-05-12T02:49:34.890Z,5.30
2019-05-12T02:50:35.229Z,5.34
2019-05-12T02:51:35.130Z,5.32
2019-05-12T02:52:34.754Z,5.33
2019-05-12T02:53:35.097Z,5.34
2019-05-12T02:54:50.857Z,5.36
2019-05-12T02:55:35.026Z,5.43
2019-05-12T02:56:35.615Z,5.48
2019-05-12T02:57:34.346Z,5.47
2019-05-12T02:58:34.606Z,5.48
2019-05-12T02:59:34.732Z,5.39
2019-05-12T03:00:58.977Z,5.40
2019-05-12T03:01:34.738Z,5.44
2019-05-12T03:02:34.745Z,5.52
2019-05-12T03:03:35.228Z,5.55
2019-05-12T03:04:34.976Z,5.57
2019-05-12T03:05:35.057Z,5.55
2019-05-12T03:06:36.147Z,5.57
2019-05-12T03:07:34.625Z,5.57
2019-05-12T03:08:34.884Z,5.59
2019-05-12T03:09:35.222Z,5.54
2019-05-12T03:10:35.419Z,5.51
2019-05-12T03:11:35.483Z,5.54
2019-05-12T03:12:34.401Z,5.58
2019-05-12T03:13:34.588Z,5.54
2019-05-12T03:14:39.340Z,5.52
2019-05-12T03:15:36.818Z,5.48
2019-05-12T03:16:34.962Z,5.47
2019-05-12T03:17:35.502Z,5.50
2019-05-12T03:18:34.770Z,5.52
2019-05-12T03:19:34.580Z,5.52
2019-05-12T03:20:35.194Z,5.55
2019-05-12T03:21:35.173Z,5.47
2019-05-12T03:22:35.359Z,5.51
2019-05-12T03:23:35.261Z,5.52
2019-05-12T03:24:34.227Z,5.50
2019-05-12T03:25:35.614Z,5.40
2019-05-12T03:26:34.690Z,5.44
2019-05-12T03:27:35.108Z,5.40
2019-05-12T03:28:35.619Z,5.40
2019-05-12T03:29:34.339Z,5.30
2019-05-12T03:30:38.113Z,5.32
2019-05-12T03:31:40.318Z,5.29
2019-05-12T03:32:37.684Z,5.30
2019-05-12T03:33:36.045Z,5.36
2019-05-12T03:34:38.172Z,5.37
2019-05-12T03:35:40.539Z,5.44
2019-05-12T03:36:41.047Z,5.41
2019-05-12T03:37:35.309Z,5.36
2019-05-12T03:38:35.978Z,5.44
2019-05-12T03:39:34.352Z,5.47
2019-05-12T03:40:37.518Z,5.36
2019-05-12T03:41:34.834Z,5.39
2019-05-12T03:42:35.436Z,5.40
2019-05-12T03:43:35.093Z,5.40
2019-05-12T03:44:35.186Z,5.30
2019-05-12T03:45:35.434Z,5.37
2019-05-12T03:46:35.267Z,5.39
2019-05-12T03:47:35.579Z,5.44
2019-05-12T03:48:34.902Z,5.41
2019-05-12T03:49:34.795Z,5.47
2019-05-12T03:50:35.389Z,5.40
2019-05-12T03:51:34.993Z,5.41
2019-05-12T03:52:34.926Z,5.41
2019-05-12T03:53:35.250Z,5.41
2019-05-12T03:54:34.926Z,5.44
2019-05-12T03:55:37.998Z,5.51
2019-05-12T03:56:34.579Z,5.54
2019-05-12T03:57:34.511Z,5.59
2019-05-12T03:58:34.600Z,5.59
2019-05-12T03:59:34.782Z,5.57
2019-05-12T04:00:35.940Z,5.58
2019-05-12T04:01:35.881Z,5.61
2019-05-12T04:02:34.038Z,5.67
2019-05-12T04:03:34.541Z,5.66
2019-05-12T04:04:34.745Z,5.67
2019-05-12T04:05:34.901Z,5.70
2019-05-12T04:06:34.576Z,5.73
2019-05-12T04:07:34.451Z,5.77
2019-05-12T04:08:34.669Z,5.77
2019-05-12T04:09:34.821Z,5.73
2019-05-12T04:10:35.455Z,5.77
2019-05-12T04:11:35.411Z,5.75
2019-05-12T04:12:34.615Z,5.70
2019-05-12T04:13:34.134Z,5.75
2019-05-12T04:14:34.534Z,5.69
2019-05-12T04:15:34.798Z,5.69
2019-05-12T04:16:35.816Z,5.66
2019-05-12T04:17:34.965Z,5.69
2019-05-12T04:18:34.825Z,5.66
2019-05-12T04:19:34.386Z,5.69
2019-05-12T04:20:35.616Z,5.77
2019-05-12T04:21:35.051Z,5.82
2019-05-12T04:22:35.189Z,5.82
2019-05-12T04:23:34.852Z,5.80
2019-05-12T04:24:35.632Z,5.87
2019-05-12T04:25:47.833Z,5.90
2019-05-12T04:26:36.270Z,5.75
2019-05-12T04:27:34.772Z,5.76
2019-05-12T04:28:35.149Z,5.67
2019-05-12T04:29:34.869Z,5.75
2019-05-12T04:30:35.133Z,5.73
2019-05-12T04:31:34.647Z,5.80
2019-05-12T04:32:35.463Z,5.73
2019-05-12T04:33:34.696Z,5.73
2019-05-12T04:34:34.256Z,5.75
2019-05-12T04:35:34.917Z,5.76
2019-05-12T04:36:35.177Z,5.69
2019-05-12T04:37:34.983Z,5.77
2019-05-12T04:38:35.247Z,5.79
2019-05-12T04:39:34.131Z,5.84
2019-05-12T04:40:35.348Z,5.87
2019-05-12T04:41:35.071Z,5.94
2019-05-12T04:42:34.672Z,5.97
2019-05-12T04:43:35.106Z,5.97
2019-05-12T04:44:34.700Z,5.94
2019-05-12T04:45:34.698Z,5.98
2019-05-12T04:46:34.700Z,6.02
2019-05-12T04:47:34.944Z,6.03
2019-05-12T04:48:35.875Z,6.06
2019-05-12T04:49:34.600Z,6.06
2019-05-12T04:50:35.339Z,6.08
2019-05-12T04:51:34.951Z,6.03
2019-05-12T04:52:34.892Z,6.06
2019-05-12T04:53:34.894Z,6.02
2019-05-12T04:54:35.324Z,6.15
2019-05-12T04:55:35.239Z,6.00
2019-05-12T04:56:35.444Z,6.00
2019-05-12T04:57:34.675Z,6.12
2019-05-12T04:58:34.819Z,6.06
2019-05-12T04:59:34.494Z,6.15
2019-05-12T05:00:34.805Z,6.13
2019-05-12T05:01:34.642Z,6.18
2019-05-12T05:02:35.091Z,6.19
2019-05-12T05:03:34.748Z,6.19
2019-05-12T05:04:34.610Z,6.25
2019-05-12T05:05:35.019Z,6.30
2019-05-12T05:06:34.186Z,6.28
2019-05-12T05:07:31.868Z,6.34
2019-05-12T05:08:34.653Z,6.31
2019-05-12T05:09:34.814Z,6.42
2019-05-12T05:10:34.109Z,6.37
2019-05-12T05:11:34.355Z,6.43
2019-05-12T05:12:34.326Z,6.55
2019-05-12T05:13:36.633Z,6.52
2019-05-12T05:14:34.037Z,6.53
2019-05-12T05:15:34.826Z,6.57
2019-05-12T05:16:34.365Z,6.57
2019-05-12T05:17:34.519Z,6.64
2019-05-12T05:18:31.722Z,6.63
2019-05-12T05:19:33.782Z,6.65
2019-05-12T05:20:31.707Z,6.71
2019-05-12T05:21:31.683Z,6.74
2019-05-12T05:22:33.352Z,6.78
2019-05-12T05:23:33.547Z,6.86
2019-05-12T05:24:33.809Z,6.85
2019-05-12T05:25:33.942Z,6.91
2019-05-12T05:26:36.409Z,6.88
2019-05-12T05:27:34.038Z,6.92
2019-05-12T05:28:33.848Z,6.88
2019-05-12T05:29:33.562Z,6.82
2019-05-12T05:30:33.858Z,6.86
2019-05-12T05:31:33.707Z,6.85
2019-05-12T05:32:33.736Z,6.89
2019-05-12T05:33:33.857Z,6.92
2019-05-12T05:34:31.538Z,6.93
2019-05-12T05:35:37.172Z,6.99
2019-05-12T05:36:34.566Z,7.04
2019-05-12T05:37:36.913Z,7.03
2019-05-12T05:38:34.311Z,7.15
2019-05-12T05:39:35.390Z,7.04
2019-05-12T05:40:32.467Z,7.11
2019-05-12T05:41:31.461Z,7.18
2019-05-12T05:42:33.417Z,7.19
2019-05-12T05:43:33.325Z,7.13
2019-05-12T05:44:36.326Z,7.18
2019-05-12T05:45:34.691Z,7.18
2019-05-12T05:46:33.689Z,7.11
2019-05-12T05:47:33.473Z,7.21
2019-05-12T05:48:34.547Z,7.16
2019-05-12T05:49:31.373Z,7.28
2019-05-12T05:50:31.362Z,7.33
2019-05-12T05:51:33.515Z,7.21
2019-05-12T05:52:34.159Z,7.24
2019-05-12T05:53:33.571Z,7.33
2019-05-12T05:54:35.205Z,7.43
2019-05-12T05:55:33.914Z,7.37
2019-05-12T05:56:39.715Z,7.44
2019-05-12T05:57:33.659Z,7.40
2019-05-12T05:58:33.787Z,7.52
2019-05-12T05:59:35.883Z,7.39
2019-05-12T06:00:34.716Z,7.39
2019-05-12T06:01:34.503Z,7.40
2019-05-12T06:02:39.426Z,7.49
2019-05-12T06:03:33.904Z,7.44
2019-05-12T06:04:31.247Z,7.50
2019-05-12T06:05:31.198Z,7.52
2019-05-12T06:06:31.197Z,7.60
2019-05-12T06:07:37.664Z,7.68
2019-05-12T06:08:33.759Z,7.77
2019-05-12T06:09:31.157Z,7.73
2019-05-12T06:10:36.113Z,7.71
2019-05-12T06:11:34.367Z,7.91
2019-05-12T06:12:33.012Z,7.76
2019-05-12T06:13:33.983Z,7.71
2019-05-12T06:14:31.135Z,7.77
2019-05-12T06:15:38.165Z,7.83
2019-05-12T06:16:34.093Z,7.87
2019-05-12T06:17:31.084Z,7.92
2019-05-12T06:18:33.265Z,8.06
2019-05-12T06:19:31.051Z,8.06
2019-05-12T06:20:31.040Z,8.14
2019-05-12T06:21:36.234Z,8.13
2019-05-12T06:22:34.249Z,8.13
2019-05-12T06:23:34.811Z,8.09
2019-05-12T06:24:33.489Z,8.05
2019-05-12T06:25:44.608Z,8.09
2019-05-12T06:26:35.387Z,8.19
2019-05-12T06:27:32.862Z,8.17
2019-05-12T06:28:36.240Z,8.32
2019-05-12T06:29:33.334Z,8.46
2019-05-12T06:30:37.478Z,8.50
2019-05-12T06:31:33.401Z,8.65
2019-05-12T06:32:30.913Z,8.72
2019-05-12T06:33:33.043Z,8.86
2019-05-12T06:34:34.173Z,8.99
2019-05-12T06:35:36.361Z,8.90
2019-05-12T06:36:34.045Z,8.93
2019-05-12T06:37:30.861Z,9.09
2019-05-12T06:38:35.556Z,9.15
2019-05-12T06:39:34.227Z,9.16
2019-05-12T06:40:36.619Z,9.19
2019-05-12T06:41:33.622Z,9.15
2019-05-12T06:42:30.797Z,9.16
2019-05-12T06:43:35.291Z,9.27
2019-05-12T06:44:33.488Z,9.30
2019-05-12T06:45:34.080Z,9.19
2019-05-12T06:46:34.089Z,9.23
2019-05-12T06:47:30.760Z,9.22
2019-05-12T06:48:30.731Z,9.18
2019-05-12T06:49:30.761Z,9.11
2019-05-12T06:50:34.471Z,9.19
2019-05-12T06:51:33.817Z,9.15
2019-05-12T06:52:30.708Z,9.30
2019-05-12T06:53:31.137Z,9.26
2019-05-12T06:54:30.661Z,9.42
2019-05-12T06:55:34.493Z,9.48
2019-05-12T06:56:34.034Z,9.54
2019-05-12T06:57:30.635Z,9.50
2019-05-12T06:58:32.123Z,9.60
2019-05-12T06:59:30.609Z,9.62
2019-05-12T07:00:32.134Z,9.69
2019-05-12T07:01:30.597Z,9.69
2019-05-12T07:02:37.118Z,9.63
2019-05-12T07:03:34.929Z,9.70
2019-05-12T07:04:33.721Z,9.78
2019-05-12T07:05:33.778Z,9.67
2019-05-12T07:06:33.754Z,9.73
2019-05-12T07:07:35.609Z,9.72
2019-05-12T07:08:34.519Z,9.62
2019-05-12T07:09:33.269Z,9.62
2019-05-12T07:10:43.497Z,9.62
2019-05-12T07:11:42.412Z,9.70
2019-05-12T07:12:36.601Z,9.66
2019-05-12T07:13:31.477Z,9.65
2019-05-12T07:14:30.439Z,9.67
2019-05-12T07:15:35.853Z,9.60
2019-05-12T07:16:33.920Z,9.55
2019-05-12T07:17:37.190Z,9.66
2019-05-12T07:18:32.849Z,9.62
2019-05-12T07:19:33.604Z,9.60
2019-05-12T07:20:35.338Z,9.62
2019-05-12T07:21:33.573Z,9.63
2019-05-12T07:22:31.793Z,9.60
2019-05-12T07:23:33.395Z,9.50
2019-05-12T07:24:30.355Z,9.52
2019-05-12T07:25:31.537Z,9.65
2019-05-12T07:26:30.312Z,9.67
2019-05-12T07:27:36.766Z,9.69
2019-05-12T07:28:36.189Z,9.73
2019-05-12T07:29:31.314Z,9.81
2019-05-12T07:30:32.628Z,9.77
2019-05-12T07:31:30.257Z,9.70
2019-05-12T07:32:30.239Z,9.77
2019-05-12T07:33:32.792Z,9.88
2019-05-12T07:34:33.318Z,9.87
2019-05-12T07:35:30.203Z,9.94
2019-05-12T07:36:30.194Z,9.90
2019-05-12T07:37:30.193Z,9.87
2019-05-12T07:38:30.178Z,10.05
2019-05-12T07:39:30.178Z,10.01
2019-05-12T07:40:32.322Z,10.03
2019-05-12T07:41:30.138Z,10.09
2019-05-12T07:42:31.548Z,10.17
2019-05-12T07:43:30.119Z,10.21
2019-05-12T07:44:34.294Z,10.18
2019-05-12T07:45:31.095Z,10.27
2019-05-12T07:46:30.098Z,10.18
2019-05-12T07:47:30.076Z,10.26
2019-05-12T07:48:30.083Z,10.34
2019-05-12T07:49:36.931Z,10.48
2019-05-12T07:50:31.046Z,10.57
2019-05-12T07:51:35.168Z,10.67
2019-05-12T07:52:33.625Z,10.72
2019-05-12T07:53:30.009Z,10.79
2019-05-12T07:54:37.338Z,10.75
2019-05-12T07:55:30.992Z,10.76
2019-05-12T07:56:32.917Z,10.76
2019-05-12T07:57:34.505Z,10.73
2019-05-12T07:58:33.211Z,10.76
2019-05-12T07:59:35.659Z,10.78
2019-05-12T08:00:30.946Z,10.80
2019-05-12T08:01:29.917Z,10.72
2019-05-12T08:02:31.798Z,10.75
2019-05-12T08:03:29.907Z,10.73
2019-05-12T08:04:31.667Z,10.80
2019-05-12T08:05:33.492Z,10.80
2019-05-12T08:06:32.623Z,10.83
2019-05-12T08:07:30.857Z,10.72
2019-05-12T08:08:29.840Z,10.78
2019-05-12T08:09:32.443Z,10.70
2019-05-12T08:10:30.818Z,10.61
2019-05-12T08:11:34.705Z,10.64
2019-05-12T08:12:30.811Z,10.68
2019-05-12T08:13:31.117Z,10.75
2019-05-12T08:14:33.056Z,10.76
2019-05-12T08:15:29.760Z,10.76
2019-05-12T08:16:33.666Z,10.83
2019-05-12T08:17:30.741Z,11.01
2019-05-12T08:18:36.926Z,11.12
2019-05-12T08:19:30.721Z,11.08
2019-05-12T08:20:29.740Z,11.19
2019-05-12T08:21:34.912Z,11.30
2019-05-12T08:22:30.688Z,11.25
2019-05-12T08:23:29.683Z,11.33
2019-05-12T08:24:29.681Z,11.33
2019-05-12T08:25:29.696Z,11.41
2019-05-12T08:26:29.640Z,11.40
2019-05-12T08:27:29.654Z,11.41
2019-05-12T08:28:35.896Z,11.34
2019-05-12T08:29:30.637Z,11.45
2019-05-12T08:30:29.628Z,11.34
2019-05-12T08:31:34.167Z,11.28
2019-05-12T08:32:30.577Z,11.25
2019-05-12T08:33:29.572Z,11.19
2019-05-12T08:34:29.572Z,11.04
2019-05-12T08:35:34.605Z,10.94
2019-05-12T08:36:30.550Z,10.87
2019-05-12T08:37:29.543Z,10.82
2019-05-12T08:38:29.512Z,10.86
2019-05-12T08:39:29.506Z,10.83
2019-05-12T08:40:29.528Z,10.78
2019-05-12T08:41:29.493Z,10.79
2019-05-12T08:42:29.468Z,10.83
2019-05-12T08:43:29.467Z,10.87
2019-05-12T08:44:33.838Z,10.90
2019-05-12T08:45:36.505Z,10.97
2019-05-12T08:46:30.641Z,11.00
2019-05-12T08:47:37.149Z,11.03
2019-05-12T08:48:30.399Z,11.01
2019-05-12T08:49:34.072Z,10.98
2019-05-12T08:50:31.614Z,10.94
2019-05-12T08:51:29.373Z,11.04
2019-05-12T08:52:30.771Z,10.95
2019-05-12T08:53:30.344Z,10.94
2019-05-12T08:54:29.339Z,11.05
2019-05-12T08:55:31.438Z,11.05
2019-05-12T08:56:29.316Z,11.08
2019-05-12T08:57:34.928Z,11.16
2019-05-12T08:58:39.266Z,11.23
2019-05-12T08:59:30.287Z,11.33
2019-05-12T09:00:29.274Z,11.30
2019-05-12T09:01:30.838Z,11.33
2019-05-12T09:02:29.250Z,11.28
2019-05-12T09:03:30.547Z,11.34
2019-05-12T09:04:29.225Z,11.33
2019-05-12T09:05:34.517Z,11.27
2019-05-12T09:06:30.238Z,11.28
2019-05-12T09:07:30.394Z,11.33
2019-05-12T09:08:30.193Z,11.34
2019-05-12T09:09:29.203Z,11.22
2019-05-12T09:10:29.194Z,11.28
2019-05-12T09:11:29.148Z,11.28
2019-05-12T09:12:29.142Z,11.25
2019-05-12T09:13:29.134Z,11.16
2019-05-12T09:14:33.541Z,11.18
2019-05-12T09:15:30.144Z,11.15
2019-05-12T09:16:29.106Z,11.16
2019-05-12T09:17:29.089Z,11.18
2019-05-12T09:18:35.271Z,11.15
2019-05-12T09:19:30.087Z,11.20
2019-05-12T09:20:29.061Z,11.34
2019-05-12T09:21:31.730Z,11.34
2019-05-12T09:22:30.040Z,11.33
2019-05-12T09:23:32.703Z,11.46
2019-05-12T09:24:30.017Z,11.64
2019-05-12T09:25:28.997Z,11.59
2019-05-12T09:26:29.009Z,11.59
2019-05-12T09:27:28.997Z,11.54
2019-05-12T09:28:28.964Z,11.64
2019-05-12T09:29:28.960Z,11.66
2019-05-12T09:30:28.951Z,11.79
2019-05-12T09:31:29.603Z,12.04
2019-05-12T09:32:28.922Z,12.15
2019-05-12T09:33:31.977Z,12.18
2019-05-12T09:34:29.898Z,12.11
2019-05-12T09:35:34.890Z,12.21
2019-05-12T09:36:29.897Z,12.15
2019-05-12T09:37:30.937Z,12.17
2019-05-12T09:38:29.853Z,12.17
2019-05-12T09:39:36.436Z,12.21
2019-05-12T09:40:29.835Z,12.15
2019-05-12T09:41:28.872Z,12.22
2019-05-12T09:42:30.201Z,12.18
2019-05-12T09:43:28.806Z,12.23
2019-05-12T09:44:30.613Z,12.38
2019-05-12T09:45:28.778Z,12.43
2019-05-12T09:46:34.292Z,12.40
2019-05-12T09:47:29.979Z,12.32
2019-05-12T09:48:28.751Z,12.35
2019-05-12T09:49:39.058Z,12.30
2019-05-12T09:50:29.722Z,12.44
2019-05-12T09:51:32.923Z,12.46
2019-05-12T09:52:29.721Z,12.48
2019-05-12T09:53:28.720Z,12.43
2019-05-12T09:54:35.412Z,12.43
2019-05-12T09:55:29.672Z,12.38
2019-05-12T09:56:28.700Z,12.28
2019-05-12T09:57:37.771Z,12.30
2019-05-12T09:58:29.635Z,12.26
2019-05-12T09:59:28.625Z,12.38
2019-05-12T10:00:30.436Z,12.38
2019-05-12T10:01:37.318Z,12.38
2019-05-12T10:02:29.601Z,12.46
2019-05-12T10:03:30.750Z,12.41
2019-05-12T10:04:29.581Z,12.53
2019-05-12T10:05:30.674Z,12.47
2019-05-12T10:06:29.574Z,12.51
2019-05-12T10:07:28.540Z,12.43
2019-05-12T10:08:29.217Z,12.47
2019-05-12T10:09:29.524Z,12.54
2019-05-12T10:10:29.085Z,12.66
2019-05-12T10:11:29.523Z,12.62
2019-05-12T10:12:29.898Z,12.68
2019-05-12T10:13:30.190Z,12.69
2019-05-12T10:14:28.473Z,12.66
2019-05-12T10:15:28.771Z,12.73
2019-05-12T10:16:28.443Z,12.72
2019-05-12T10:17:30.160Z,12.77
2019-05-12T10:18:28.441Z,12.72
2019-05-12T10:19:28.418Z,12.81
2019-05-12T10:20:29.134Z,12.71
2019-05-12T10:21:29.428Z,12.68
2019-05-12T10:22:30.026Z,12.68
2019-05-12T10:23:29.386Z,12.55
2019-05-12T10:24:32.588Z,12.55
2019-05-12T10:25:30.732Z,12.50
2019-05-12T10:26:28.331Z,12.46
2019-05-12T10:27:31.964Z,12.47
2019-05-12T10:28:29.324Z,12.48
2019-05-12T10:29:30.689Z,12.53
2019-05-12T10:30:28.288Z,12.51
2019-05-12T10:31:29.729Z,12.54
2019-05-12T10:32:29.259Z,12.50
2019-05-12T10:33:28.255Z,12.48
2019-05-12T10:34:29.286Z,12.51
2019-05-12T10:35:29.229Z,12.59
2019-05-12T10:36:28.221Z,12.51
2019-05-12T10:37:29.482Z,12.51
2019-05-12T10:38:28.197Z,12.59
2019-05-12T10:39:28.202Z,12.71
2019-05-12T10:40:28.174Z,12.84
2019-05-12T10:41:28.240Z,12.93
2019-05-12T10:42:28.154Z,12.91
2019-05-12T10:43:28.142Z,12.95
2019-05-12T10:44:30.056Z,13.01
2019-05-12T10:45:29.131Z,13.09
2019-05-12T10:46:28.750Z,13.08
2019-05-12T10:47:28.117Z,13.14
2019-05-12T10:48:28.086Z,13.13
2019-05-12T10:49:28.098Z,13.13
2019-05-12T10:50:28.077Z,13.17
2019-05-12T10:51:28.057Z,13.23
2019-05-12T10:52:29.550Z,13.35
2019-05-12T10:53:29.040Z,13.42
2019-05-12T10:54:28.035Z,13.42
2019-05-12T10:55:28.007Z,13.39
2019-05-12T10:56:28.017Z,13.32
2019-05-12T10:57:28.020Z,13.06
2019-05-12T10:58:27.993Z,13.02
2019-05-12T10:59:32.915Z,12.93
2019-05-12T11:00:28.958Z,12.87
2019-05-12T11:01:27.946Z,12.81
2019-05-12T11:02:30.428Z,12.71
2019-05-12T11:03:27.925Z,12.62
2019-05-12T11:04:35.691Z,12.59
2019-05-12T11:05:28.896Z,12.59
2019-05-12T11:06:27.889Z,12.63
2019-05-12T11:07:28.404Z,12.65
2019-05-12T11:08:27.903Z,12.76
2019-05-12T11:09:31.692Z,12.72
2019-05-12T11:10:28.870Z,12.83
2019-05-12T11:11:33.004Z,12.91
2019-05-12T11:12:29.228Z,12.99
2019-05-12T11:13:27.811Z,12.95
2019-05-12T11:14:30.495Z,13.06
2019-05-12T11:15:27.791Z,13.05
2019-05-12T11:16:31.080Z,13.06
2019-05-12T11:17:27.764Z,13.17
2019-05-12T11:18:30.506Z,13.20
2019-05-12T11:19:27.750Z,13.27
2019-05-12T11:20:27.755Z,13.24
2019-05-12T11:21:27.760Z,13.19
2019-05-12T11:22:27.735Z,13.09
2019-05-12T11:23:27.707Z,13.21
2019-05-12T11:24:27.690Z,13.21
2019-05-12T11:25:27.681Z,13.42
2019-05-12T11:26:27.697Z,13.40
2019-05-12T11:27:27.659Z,13.53
2019-05-12T11:28:27.657Z,13.43
2019-05-12T11:29:27.638Z,13.53
2019-05-12T11:30:27.642Z,13.63
2019-05-12T11:31:27.645Z,13.64
2019-05-12T11:32:28.955Z,13.65
2019-05-12T11:33:28.616Z,13.72
2019-05-12T11:34:27.589Z,13.71
2019-05-12T11:35:27.576Z,13.71
2019-05-12T11:36:27.577Z,13.76
2019-05-12T11:37:29.082Z,13.78
2019-05-12T11:38:27.545Z,13.86
2019-05-12T11:39:30.610Z,13.94
2019-05-12T11:40:28.518Z,14.00
2019-05-12T11:41:28.581Z,13.98
2019-05-12T11:42:27.496Z,14.11
2019-05-12T11:43:29.761Z,14.05
2019-05-12T11:44:27.474Z,14.18
2019-05-12T11:45:27.459Z,14.23
2019-05-12T11:46:27.507Z,14.26
2019-05-12T11:47:27.463Z,14.26
2019-05-12T11:48:27.426Z,14.26
2019-05-12T11:49:28.145Z,14.19
2019-05-12T11:50:27.432Z,14.19
2019-05-12T11:51:30.473Z,14.26
2019-05-12T11:52:27.386Z,14.22
2019-05-12T11:53:31.027Z,14.31
2019-05-12T11:54:28.076Z,14.36
2019-05-12T11:55:31.496Z,14.48
2019-05-12T11:56:27.337Z,14.51
2019-05-12T11:57:30.240Z,14.40
2019-05-12T11:58:27.324Z,14.19
2019-05-12T11:59:27.320Z,14.23
2019-05-12T12:00:27.324Z,14.26
2019-05-12T12:01:27.324Z,14.36
2019-05-12T12:02:30.423Z,14.30
2019-05-12T12:03:27.293Z,14.45
2019-05-12T12:04:27.254Z,14.49
2019-05-12T12:05:27.240Z,14.53
2019-05-12T12:06:27.247Z,14.52
2019-05-12T12:07:27.226Z,14.52
2019-05-12T12:08:35.648Z,14.46
2019-05-12T12:09:28.207Z,14.48
2019-05-12T12:10:29.187Z,14.53
2019-05-12T12:11:28.300Z,14.51
2019-05-12T12:12:27.161Z,14.51
2019-05-12T12:13:29.867Z,14.49
2019-05-12T12:14:27.151Z,14.58
2019-05-12T12:15:30.240Z,14.49
2019-05-12T12:16:27.154Z,14.40
2019-05-12T12:17:31.098Z,14.41
2019-05-12T12:18:28.098Z,14.37
2019-05-12T12:19:37.813Z,14.31
2019-05-12T12:20:28.074Z,14.21
2019-05-12T12:21:27.068Z,14.16
2019-05-12T12:22:29.887Z,14.11
2019-05-12T12:23:27.780Z,14.01
2019-05-12T12:24:31.288Z,13.98
2019-05-12T12:25:27.024Z,13.85
2019-05-12T12:26:30.200Z,13.82
2019-05-12T12:27:26.998Z,13.94
2019-05-12T12:28:27.035Z,13.86
2019-05-12T12:29:26.976Z,13.86
2019-05-12T12:30:26.972Z,13.76
2019-05-12T12:31:29.690Z,13.61
2019-05-12T12:32:27.947Z,13.60
2019-05-12T12:33:30.934Z,13.53
2019-05-12T12:34:30.120Z,13.63
2019-05-12T12:35:26.934Z,13.53
2019-05-12T12:36:26.905Z,13.53
2019-05-12T12:37:26.901Z,13.51
2019-05-12T12:38:26.898Z,13.47
2019-05-12T12:39:26.870Z,13.47
2019-05-12T12:40:28.815Z,13.40
2019-05-12T12:41:26.849Z,13.39
2019-05-12T12:42:30.388Z,13.27
2019-05-12T12:43:27.825Z,13.24
2019-05-12T12:44:26.824Z,13.17
2019-05-12T12:45:30.302Z,13.24
2019-05-12T12:46:27.795Z,13.21
2019-05-12T12:47:26.805Z,13.27
2019-05-12T12:48:29.694Z,13.24
2019-05-12T12:49:29.329Z,13.38
2019-05-12T12:50:30.529Z,13.43
2019-05-12T12:51:26.756Z,13.43
2019-05-12T12:52:26.749Z,13.54
2019-05-12T12:53:27.685Z,13.49
2019-05-12T12:54:26.727Z,13.54
2019-05-12T12:55:26.697Z,13.68
2019-05-12T12:56:30.103Z,13.73
2019-05-12T12:57:26.690Z,13.80
2019-05-12T12:58:31.133Z,13.80
2019-05-12T12:59:27.648Z,13.90
2019-05-12T13:00:32.139Z,13.91
2019-05-12T13:01:30.875Z,13.97
2019-05-12T13:02:27.650Z,14.00
2019-05-12T13:03:29.858Z,14.11
2019-05-12T13:04:28.876Z,14.09
2019-05-12T13:05:26.600Z,14.30
2019-05-12T13:06:26.570Z,14.31
2019-05-12T13:07:26.578Z,14.34